Whiting Field Naval Air Station North Airport
KNSE : now visible

Airfield :











YOU CAN JOIN US ON...

 
LOGIN :

Register | Disclaimer

   EN    FR    IT 

 









Legend :    VFR   Marginal VFR   IFR   Intensive IFR   Very Intensive IFR
Visi :
Ceiling :
>= 8 km
>= 3000ft
5 to 8 km
1000 to 3000 ft
1500m to 5 km
500 to 1000 ft
800 to 1500m
200 to 500 ft
< 800m
< 200 ft
Symbols :   Thunderstorms  Fog  Heavy snow  Heavy precipitations  Wind > 20 kt






- Airport Elevation : 199 ft


KNSE - Whiting Field Naval Air Station North

CURRENT METAR :
  • 212256Z 16005KT 10SM FEW030 SCT070 SCT250 24/20 A3008 RMK SLP173 T2 SET T02440200

EXPIRED METARs :
  • 212156Z 18005KT 10SM SCT030 SCT065 BKN250 26/20 A3008 RMK SLP173 T2 SET T02560200

TAF TAF KNSE
Valid from the 21 at 23:00 until the 22 at 23:00 UTC


2123/2223 19005KT 9999 FEW030 SCT070 SCT250 QNH3004INS
FM220600 VRB04KT 8000 BR SCT006 SCT250 QNH3002INS
FM220800 00000KT 3200 BR VCSH OVC005 QNH3000INS
TEMPO 2208/2213 0800 FG OVC002
FM221500 36007KT 9999 BKN015 BKN250 QNH3003INS
FM221800 34009KT 9999 SCT020 SCT250 QNH2998INS AUTOMATED SENSOR METWATCH 2204 TIL 2211 T19/2211Z T26/2219Z FN20029
KZJX FIR / North America



MET'MAP, your aeronautical weather chart ! - Copyright ORBIFLY December 2007 - Disclaimer

ORBIFLY MET'MAP TEAM :

Programming & Development : Alexandra Zaïnal
Concept & original design : Baudouin d'Aumeries
Assistance for programming : Marc-Olivier Méhu
Technical & hardware support : Manuel Goepfert

Contact : metmap@orbifly.com




SOURCES & CREDITS :

   NOAA       Earth
Advisory